sensor_id;sensor_type;location;lat;lon;timestamp;P1;durP1;ratioP1;P2;durP2;ratioP2
77287;SDS011;66345;42.694;23.346;2023-04-24T00:00:33;7.27;;;3.80;;
77287;SDS011;66345;42.694;23.346;2023-04-24T00:02:58;9.67;;;4.00;;
77287;SDS011;66345;42.694;23.346;2023-04-24T00:05:24;8.63;;;3.80;;
77287;SDS011;66345;42.694;23.346;2023-04-24T00:07:50;7.43;;;3.50;;
77287;SDS011;66345;42.694;23.346;2023-04-24T00:10:19;7.00;;;3.10;;
77287;SDS011;66345;42.694;23.346;2023-04-24T00:12:44;8.63;;;3.40;;
77287;SDS011;66345;42.694;23.346;2023-04-24T00:15:11;5.95;;;3.30;;
77287;SDS011;66345;42.694;23.346;2023-04-24T00:17:37;5.97;;;3.40;;
77287;SDS011;66345;42.694;23.346;2023-04-24T00:20:03;7.55;;;3.30;;
77287;SDS011;66345;42.694;23.346;2023-04-24T00:22:29;6.47;;;3.00;;
77287;SDS011;66345;42.694;23.346;2023-04-24T00:24:56;8.52;;;3.22;;
77287;SDS011;66345;42.694;23.346;2023-04-24T00:27:22;7.20;;;3.30;;
77287;SDS011;66345;42.694;23.346;2023-04-24T00:29:47;8.13;;;3.47;;
77287;SDS011;66345;42.694;23.346;2023-04-24T00:32:13;6.80;;;3.27;;
77287;SDS011;66345;42.694;23.346;2023-04-24T00:34:39;7.47;;;3.38;;
77287;SDS011;66345;42.694;23.346;2023-04-24T00:37:04;5.97;;;3.33;;
77287;SDS011;66345;42.694;23.346;2023-04-24T00:39:30;6.65;;;3.40;;
77287;SDS011;66345;42.694;23.346;2023-04-24T00:41:56;5.93;;;3.23;;
77287;SDS011;66345;42.694;23.346;2023-04-24T00:44:22;6.28;;;3.35;;
77287;SDS011;66345;42.694;23.346;2023-04-24T00:46:48;9.10;;;3.07;;
77287;SDS011;66345;42.694;23.346;2023-04-24T00:49:19;8.43;;;3.58;;
77287;SDS011;66345;42.694;23.346;2023-04-24T00:51:46;6.38;;;3.35;;
77287;SDS011;66345;42.694;23.346;2023-04-24T00:54:14;6.80;;;3.13;;
77287;SDS011;66345;42.694;23.346;2023-04-24T00:56:41;8.50;;;3.47;;
77287;SDS011;66345;42.694;23.346;2023-04-24T00:59:07;6.80;;;3.28;;
77287;SDS011;66345;42.694;23.346;2023-04-24T01:01:33;7.40;;;3.47;;
77287;SDS011;66345;42.694;23.346;2023-04-24T01:04:00;6.82;;;3.25;;
77287;SDS011;66345;42.694;23.346;2023-04-24T01:06:29;5.67;;;3.33;;
77287;SDS011;66345;42.694;23.346;2023-04-24T01:08:56;6.15;;;3.20;;
77287;SDS011;66345;42.694;23.346;2023-04-24T01:11:23;7.63;;;3.50;;
77287;SDS011;66345;42.694;23.346;2023-04-24T01:13:50;6.07;;;3.17;;
77287;SDS011;66345;42.694;23.346;2023-04-24T01:16:16;7.77;;;3.60;;
77287;SDS011;66345;42.694;23.346;2023-04-24T01:18:42;7.65;;;3.88;;
77287;SDS011;66345;42.694;23.346;2023-04-24T01:21:09;9.13;;;3.50;;
77287;SDS011;66345;42.694;23.346;2023-04-24T01:23:39;7.78;;;3.63;;
77287;SDS011;66345;42.694;23.346;2023-04-24T01:26:05;6.63;;;3.80;;
77287;SDS011;66345;42.694;23.346;2023-04-24T01:28:30;7.43;;;3.53;;
77287;SDS011;66345;42.694;23.346;2023-04-24T01:30:56;6.53;;;3.80;;
77287;SDS011;66345;42.694;23.346;2023-04-24T01:33:23;9.30;;;3.85;;
77287;SDS011;66345;42.694;23.346;2023-04-24T01:35:48;8.13;;;4.27;;
77287;SDS011;66345;42.694;23.346;2023-04-24T01:38:15;8.90;;;4.05;;
77287;SDS011;66345;42.694;23.346;2023-04-24T01:40:40;10.90;;;4.60;;
77287;SDS011;66345;42.694;23.346;2023-04-24T01:43:06;9.00;;;4.53;;
77287;SDS011;66345;42.694;23.346;2023-04-24T01:45:32;11.27;;;4.57;;
77287;SDS011;66345;42.694;23.346;2023-04-24T01:47:57;10.38;;;4.47;;
77287;SDS011;66345;42.694;23.346;2023-04-24T01:50:24;7.97;;;4.32;;
77287;SDS011;66345;42.694;23.346;2023-04-24T01:52:49;9.77;;;4.80;;
77287;SDS011;66345;42.694;23.346;2023-04-24T01:55:15;10.47;;;4.67;;
77287;SDS011;66345;42.694;23.346;2023-04-24T01:57:40;9.35;;;5.00;;
77287;SDS011;66345;42.694;23.346;2023-04-24T02:00:06;7.55;;;4.80;;
77287;SDS011;66345;42.694;23.346;2023-04-24T02:02:33;7.75;;;5.20;;
77287;SDS011;66345;42.694;23.346;2023-04-24T02:04:58;9.88;;;4.65;;
77287;SDS011;66345;42.694;23.346;2023-04-24T02:07:24;7.72;;;4.38;;
77287;SDS011;66345;42.694;23.346;2023-04-24T02:09:50;7.63;;;4.40;;
77287;SDS011;66345;42.694;23.346;2023-04-24T02:12:16;9.10;;;4.20;;
77287;SDS011;66345;42.694;23.346;2023-04-24T02:14:44;8.53;;;4.67;;
77287;SDS011;66345;42.694;23.346;2023-04-24T02:17:10;8.30;;;4.43;;
77287;SDS011;66345;42.694;23.346;2023-04-24T02:19:37;10.40;;;4.47;;
77287;SDS011;66345;42.694;23.346;2023-04-24T02:22:02;7.57;;;4.00;;
77287;SDS011;66345;42.694;23.346;2023-04-24T02:24:28;9.00;;;4.50;;
77287;SDS011;66345;42.694;23.346;2023-04-24T02:26:53;8.53;;;4.30;;
77287;SDS011;66345;42.694;23.346;2023-04-24T02:29:19;7.90;;;4.43;;
77287;SDS011;66345;42.694;23.346;2023-04-24T02:31:44;10.98;;;4.53;;
77287;SDS011;66345;42.694;23.346;2023-04-24T02:34:10;11.10;;;4.57;;
77287;SDS011;66345;42.694;23.346;2023-04-24T02:36:35;9.97;;;4.60;;
77287;SDS011;66345;42.694;23.346;2023-04-24T02:39:01;11.88;;;4.55;;
77287;SDS011;66345;42.694;23.346;2023-04-24T02:41:26;9.50;;;4.50;;
77287;SDS011;66345;42.694;23.346;2023-04-24T02:43:56;7.05;;;4.22;;
77287;SDS011;66345;42.694;23.346;2023-04-24T02:46:24;9.65;;;4.35;;
77287;SDS011;66345;42.694;23.346;2023-04-24T02:48:49;12.25;;;4.30;;
77287;SDS011;66345;42.694;23.346;2023-04-24T02:51:15;7.82;;;4.80;;
77287;SDS011;66345;42.694;23.346;2023-04-24T02:53:40;9.63;;;4.50;;
77287;SDS011;66345;42.694;23.346;2023-04-24T02:56:06;7.87;;;4.60;;
77287;SDS011;66345;42.694;23.346;2023-04-24T02:58:31;8.33;;;4.47;;
77287;SDS011;66345;42.694;23.346;2023-04-24T03:00:56;10.37;;;5.10;;
77287;SDS011;66345;42.694;23.346;2023-04-24T03:03:23;9.65;;;4.75;;
77287;SDS011;66345;42.694;23.346;2023-04-24T03:05:48;10.67;;;5.23;;
77287;SDS011;66345;42.694;23.346;2023-04-24T03:08:14;10.63;;;5.10;;
77287;SDS011;66345;42.694;23.346;2023-04-24T03:10:40;8.53;;;5.07;;
77287;SDS011;66345;42.694;23.346;2023-04-24T03:13:05;9.60;;;5.23;;
77287;SDS011;66345;42.694;23.346;2023-04-24T03:15:30;9.55;;;5.18;;
77287;SDS011;66345;42.694;23.346;2023-04-24T03:17:56;15.43;;;5.45;;
77287;SDS011;66345;42.694;23.346;2023-04-24T03:20:22;9.57;;;5.00;;
77287;SDS011;66345;42.694;23.346;2023-04-24T03:22:47;10.10;;;5.07;;
77287;SDS011;66345;42.694;23.346;2023-04-24T03:25:13;7.07;;;4.67;;
77287;SDS011;66345;42.694;23.346;2023-04-24T03:27:38;10.73;;;5.43;;
77287;SDS011;66345;42.694;23.346;2023-04-24T03:30:05;9.30;;;4.97;;
77287;SDS011;66345;42.694;23.346;2023-04-24T03:32:34;10.25;;;5.10;;
77287;SDS011;66345;42.694;23.346;2023-04-24T03:35:00;11.17;;;5.53;;
77287;SDS011;66345;42.694;23.346;2023-04-24T03:37:26;11.50;;;5.70;;
77287;SDS011;66345;42.694;23.346;2023-04-24T03:39:51;11.03;;;5.20;;
77287;SDS011;66345;42.694;23.346;2023-04-24T03:42:17;9.50;;;5.18;;
77287;SDS011;66345;42.694;23.346;2023-04-24T03:44:43;12.13;;;5.83;;
77287;SDS011;66345;42.694;23.346;2023-04-24T03:47:08;12.52;;;5.65;;
77287;SDS011;66345;42.694;23.346;2023-04-24T03:49:34;9.37;;;4.90;;
77287;SDS011;66345;42.694;23.346;2023-04-24T03:51:59;12.53;;;5.23;;
77287;SDS011;66345;42.694;23.346;2023-04-24T03:54:25;8.90;;;5.40;;
77287;SDS011;66345;42.694;23.346;2023-04-24T03:56:50;13.37;;;5.43;;
77287;SDS011;66345;42.694;23.346;2023-04-24T03:59:17;11.18;;;5.30;;
77287;SDS011;66345;42.694;23.346;2023-04-24T04:01:42;12.87;;;5.20;;
77287;SDS011;66345;42.694;23.346;2023-04-24T04:04:08;12.57;;;5.40;;
77287;SDS011;66345;42.694;23.346;2023-04-24T04:06:33;7.88;;;4.60;;
77287;SDS011;66345;42.694;23.346;2023-04-24T04:08:59;11.03;;;4.93;;
77287;SDS011;66345;42.694;23.346;2023-04-24T04:11:25;8.35;;;3.83;;
77287;SDS011;66345;42.694;23.346;2023-04-24T04:13:50;7.60;;;4.00;;
77287;SDS011;66345;42.694;23.346;2023-04-24T04:16:16;8.57;;;3.83;;
77287;SDS011;66345;42.694;23.346;2023-04-24T04:18:42;9.68;;;4.05;;
77287;SDS011;66345;42.694;23.346;2023-04-24T04:21:08;9.35;;;3.92;;
77287;SDS011;66345;42.694;23.346;2023-04-24T04:23:35;8.32;;;4.15;;
77287;SDS011;66345;42.694;23.346;2023-04-24T04:26:01;6.97;;;3.97;;
77287;SDS011;66345;42.694;23.346;2023-04-24T04:28:27;7.70;;;4.18;;
77287;SDS011;66345;42.694;23.346;2023-04-24T04:30:52;8.97;;;4.80;;
77287;SDS011;66345;42.694;23.346;2023-04-24T04:33:22;9.00;;;4.45;;
77287;SDS011;66345;42.694;23.346;2023-04-24T04:35:48;11.23;;;3.92;;
77287;SDS011;66345;42.694;23.346;2023-04-24T04:38:15;8.60;;;4.53;;
77287;SDS011;66345;42.694;23.346;2023-04-24T04:40:41;10.97;;;4.70;;
77287;SDS011;66345;42.694;23.346;2023-04-24T04:43:07;9.50;;;4.15;;
77287;SDS011;66345;42.694;23.346;2023-04-24T04:45:32;9.13;;;4.40;;
77287;SDS011;66345;42.694;23.346;2023-04-24T04:47:59;12.10;;;4.88;;
77287;SDS011;66345;42.694;23.346;2023-04-24T04:50:28;9.52;;;4.63;;
77287;SDS011;66345;42.694;23.346;2023-04-24T04:52:54;10.57;;;4.83;;
77287;SDS011;66345;42.694;23.346;2023-04-24T04:55:21;12.45;;;5.32;;
77287;SDS011;66345;42.694;23.346;2023-04-24T04:57:46;10.85;;;5.10;;
77287;SDS011;66345;42.694;23.346;2023-04-24T05:00:12;10.13;;;6.25;;
77287;SDS011;66345;42.694;23.346;2023-04-24T05:02:39;11.57;;;5.88;;
77287;SDS011;66345;42.694;23.346;2023-04-24T05:05:05;10.18;;;6.07;;
77287;SDS011;66345;42.694;23.346;2023-04-24T05:07:32;14.20;;;7.07;;
77287;SDS011;66345;42.694;23.346;2023-04-24T05:09:57;18.30;;;8.37;;
77287;SDS011;66345;42.694;23.346;2023-04-24T05:12:23;17.65;;;8.40;;
77287;SDS011;66345;42.694;23.346;2023-04-24T05:14:48;23.03;;;10.50;;
77287;SDS011;66345;42.694;23.346;2023-04-24T05:17:14;17.17;;;10.17;;
77287;SDS011;66345;42.694;23.346;2023-04-24T05:19:40;17.02;;;9.50;;
77287;SDS011;66345;42.694;23.346;2023-04-24T05:22:05;16.67;;;9.40;;
77287;SDS011;66345;42.694;23.346;2023-04-24T05:24:32;16.77;;;7.72;;
77287;SDS011;66345;42.694;23.346;2023-04-24T05:26:58;14.00;;;6.97;;
77287;SDS011;66345;42.694;23.346;2023-04-24T05:29:24;12.25;;;6.45;;
77287;SDS011;66345;42.694;23.346;2023-04-24T05:31:51;11.60;;;5.80;;
77287;SDS011;66345;42.694;23.346;2023-04-24T05:34:16;14.02;;;6.57;;
77287;SDS011;66345;42.694;23.346;2023-04-24T05:36:42;11.43;;;5.80;;
77287;SDS011;66345;42.694;23.346;2023-04-24T05:39:07;9.40;;;5.60;;
77287;SDS011;66345;42.694;23.346;2023-04-24T05:41:33;14.30;;;6.00;;
77287;SDS011;66345;42.694;23.346;2023-04-24T05:43:59;11.67;;;5.00;;
77287;SDS011;66345;42.694;23.346;2023-04-24T05:46:24;10.53;;;5.87;;
77287;SDS011;66345;42.694;23.346;2023-04-24T05:48:50;10.88;;;5.68;;
77287;SDS011;66345;42.694;23.346;2023-04-24T05:51:15;13.53;;;5.80;;
77287;SDS011;66345;42.694;23.346;2023-04-24T05:53:40;11.53;;;5.97;;
77287;SDS011;66345;42.694;23.346;2023-04-24T05:56:06;9.52;;;5.97;;
77287;SDS011;66345;42.694;23.346;2023-04-24T05:58:31;13.90;;;6.18;;
77287;SDS011;66345;42.694;23.346;2023-04-24T06:00:57;14.00;;;8.37;;
77287;SDS011;66345;42.694;23.346;2023-04-24T06:03:23;11.07;;;5.68;;
77287;SDS011;66345;42.694;23.346;2023-04-24T06:05:50;12.77;;;6.43;;
77287;SDS011;66345;42.694;23.346;2023-04-24T06:08:16;11.13;;;5.82;;
77287;SDS011;66345;42.694;23.346;2023-04-24T06:10:41;11.63;;;6.60;;
77287;SDS011;66345;42.694;23.346;2023-04-24T06:13:07;19.20;;;10.40;;
77287;SDS011;66345;42.694;23.346;2023-04-24T06:15:33;18.27;;;8.40;;
77287;SDS011;66345;42.694;23.346;2023-04-24T06:17:58;15.27;;;8.15;;
77287;SDS011;66345;42.694;23.346;2023-04-24T06:20:24;15.37;;;7.73;;
77287;SDS011;66345;42.694;23.346;2023-04-24T06:22:50;22.27;;;10.68;;
77287;SDS011;66345;42.694;23.346;2023-04-24T06:25:15;9.97;;;6.40;;
77287;SDS011;66345;42.694;23.346;2023-04-24T06:27:41;10.27;;;5.68;;
77287;SDS011;66345;42.694;23.346;2023-04-24T06:30:07;11.17;;;5.67;;
77287;SDS011;66345;42.694;23.346;2023-04-24T06:32:33;10.70;;;6.28;;
77287;SDS011;66345;42.694;23.346;2023-04-24T06:34:59;11.47;;;6.37;;
77287;SDS011;66345;42.694;23.346;2023-04-24T06:37:24;9.98;;;5.82;;
77287;SDS011;66345;42.694;23.346;2023-04-24T06:39:50;15.10;;;7.03;;
77287;SDS011;66345;42.694;23.346;2023-04-24T06:42:15;11.30;;;5.97;;
77287;SDS011;66345;42.694;23.346;2023-04-24T06:44:40;15.33;;;6.30;;
77287;SDS011;66345;42.694;23.346;2023-04-24T06:47:07;11.85;;;6.40;;
77287;SDS011;66345;42.694;23.346;2023-04-24T06:49:36;12.43;;;6.70;;
77287;SDS011;66345;42.694;23.346;2023-04-24T06:52:02;9.15;;;6.40;;
77287;SDS011;66345;42.694;23.346;2023-04-24T06:54:28;15.35;;;7.03;;
77287;SDS011;66345;42.694;23.346;2023-04-24T06:56:54;11.30;;;6.70;;
77287;SDS011;66345;42.694;23.346;2023-04-24T06:59:20;10.77;;;5.93;;
77287;SDS011;66345;42.694;23.346;2023-04-24T07:01:46;10.10;;;6.23;;
77287;SDS011;66345;42.694;23.346;2023-04-24T07:04:11;9.90;;;6.37;;
77287;SDS011;66345;42.694;23.346;2023-04-24T07:06:37;10.63;;;6.55;;
77287;SDS011;66345;42.694;23.346;2023-04-24T07:09:04;10.88;;;6.43;;
77287;SDS011;66345;42.694;23.346;2023-04-24T07:11:29;10.30;;;6.37;;
77287;SDS011;66345;42.694;23.346;2023-04-24T07:13:55;11.57;;;6.10;;
77287;SDS011;66345;42.694;23.346;2023-04-24T07:16:20;10.03;;;6.47;;
77287;SDS011;66345;42.694;23.346;2023-04-24T07:18:46;11.40;;;6.40;;
77287;SDS011;66345;42.694;23.346;2023-04-24T07:21:11;12.65;;;6.78;;
77287;SDS011;66345;42.694;23.346;2023-04-24T07:23:37;12.87;;;6.43;;
77287;SDS011;66345;42.694;23.346;2023-04-24T07:26:02;10.53;;;6.63;;
77287;SDS011;66345;42.694;23.346;2023-04-24T07:28:28;13.25;;;7.05;;
77287;SDS011;66345;42.694;23.346;2023-04-24T07:30:56;11.57;;;7.30;;
77287;SDS011;66345;42.694;23.346;2023-04-24T07:33:22;13.10;;;7.30;;
77287;SDS011;66345;42.694;23.346;2023-04-24T07:35:48;13.38;;;7.15;;
77287;SDS011;66345;42.694;23.346;2023-04-24T07:38:13;14.73;;;7.10;;
77287;SDS011;66345;42.694;23.346;2023-04-24T07:40:39;12.00;;;6.70;;
77287;SDS011;66345;42.694;23.346;2023-04-24T07:43:04;12.67;;;6.50;;
77287;SDS011;66345;42.694;23.346;2023-04-24T07:45:30;9.00;;;6.30;;
77287;SDS011;66345;42.694;23.346;2023-04-24T07:47:56;10.07;;;6.50;;
77287;SDS011;66345;42.694;23.346;2023-04-24T07:50:22;9.37;;;5.70;;
77287;SDS011;66345;42.694;23.346;2023-04-24T07:52:47;12.07;;;6.10;;
77287;SDS011;66345;42.694;23.346;2023-04-24T07:55:13;11.33;;;5.00;;
77287;SDS011;66345;42.694;23.346;2023-04-24T07:57:38;8.80;;;5.07;;
77287;SDS011;66345;42.694;23.346;2023-04-24T08:00:04;8.10;;;5.27;;
77287;SDS011;66345;42.694;23.346;2023-04-24T08:02:30;8.13;;;4.35;;
77287;SDS011;66345;42.694;23.346;2023-04-24T08:04:57;6.70;;;4.70;;
77287;SDS011;66345;42.694;23.346;2023-04-24T08:07:23;7.40;;;4.80;;
77287;SDS011;66345;42.694;23.346;2023-04-24T08:09:48;9.30;;;5.43;;
77287;SDS011;66345;42.694;23.346;2023-04-24T08:12:14;9.60;;;5.95;;
77287;SDS011;66345;42.694;23.346;2023-04-24T08:14:40;11.83;;;8.07;;
77287;SDS011;66345;42.694;23.346;2023-04-24T08:17:05;12.27;;;6.00;;
77287;SDS011;66345;42.694;23.346;2023-04-24T08:19:31;8.73;;;5.70;;
77287;SDS011;66345;42.694;23.346;2023-04-24T08:21:56;9.10;;;5.43;;
77287;SDS011;66345;42.694;23.346;2023-04-24T08:24:22;11.23;;;5.40;;
77287;SDS011;66345;42.694;23.346;2023-04-24T08:26:47;6.80;;;4.28;;
77287;SDS011;66345;42.694;23.346;2023-04-24T08:29:17;8.17;;;4.50;;
77287;SDS011;66345;42.694;23.346;2023-04-24T08:31:42;7.18;;;4.65;;
77287;SDS011;66345;42.694;23.346;2023-04-24T08:34:09;7.37;;;4.37;;
77287;SDS011;66345;42.694;23.346;2023-04-24T08:36:35;8.32;;;5.10;;
77287;SDS011;66345;42.694;23.346;2023-04-24T08:39:02;7.53;;;4.80;;
77287;SDS011;66345;42.694;23.346;2023-04-24T08:41:27;6.85;;;4.45;;
77287;SDS011;66345;42.694;23.346;2023-04-24T08:43:53;7.63;;;4.35;;
77287;SDS011;66345;42.694;23.346;2023-04-24T08:46:20;7.28;;;4.50;;
77287;SDS011;66345;42.694;23.346;2023-04-24T08:48:47;6.57;;;4.43;;
77287;SDS011;66345;42.694;23.346;2023-04-24T08:51:13;10.20;;;4.75;;
77287;SDS011;66345;42.694;23.346;2023-04-24T08:53:39;9.90;;;4.57;;
77287;SDS011;66345;42.694;23.346;2023-04-24T08:56:06;9.20;;;4.60;;
77287;SDS011;66345;42.694;23.346;2023-04-24T08:58:32;8.57;;;4.85;;
77287;SDS011;66345;42.694;23.346;2023-04-24T09:00:58;7.00;;;4.90;;
77287;SDS011;66345;42.694;23.346;2023-04-24T09:03:24;7.87;;;4.07;;
77287;SDS011;66345;42.694;23.346;2023-04-24T09:05:52;9.50;;;4.00;;
77287;SDS011;66345;42.694;23.346;2023-04-24T09:08:19;7.55;;;4.93;;
77287;SDS011;66345;42.694;23.346;2023-04-24T09:10:47;9.20;;;4.80;;
77287;SDS011;66345;42.694;23.346;2023-04-24T09:13:12;7.88;;;5.03;;
77287;SDS011;66345;42.694;23.346;2023-04-24T09:15:39;8.90;;;4.93;;
77287;SDS011;66345;42.694;23.346;2023-04-24T09:18:05;7.57;;;4.93;;
77287;SDS011;66345;42.694;23.346;2023-04-24T09:20:31;6.85;;;4.72;;
77287;SDS011;66345;42.694;23.346;2023-04-24T09:22:57;9.23;;;4.75;;
77287;SDS011;66345;42.694;23.346;2023-04-24T09:25:31;7.17;;;5.00;;
77287;SDS011;66345;42.694;23.346;2023-04-24T09:28:00;6.78;;;4.90;;
77287;SDS011;66345;42.694;23.346;2023-04-24T09:30:27;8.55;;;4.70;;
77287;SDS011;66345;42.694;23.346;2023-04-24T09:35:40;6.07;;;3.93;;
77287;SDS011;66345;42.694;23.346;2023-04-24T09:38:06;8.30;;;4.18;;
77287;SDS011;66345;42.694;23.346;2023-04-24T09:40:32;10.07;;;4.60;;
77287;SDS011;66345;42.694;23.346;2023-04-24T09:42:59;7.28;;;4.15;;
77287;SDS011;66345;42.694;23.346;2023-04-24T09:45:37;7.38;;;4.35;;
77287;SDS011;66345;42.694;23.346;2023-04-24T09:48:04;8.10;;;4.75;;
77287;SDS011;66345;42.694;23.346;2023-04-24T09:50:31;7.05;;;4.20;;
77287;SDS011;66345;42.694;23.346;2023-04-24T09:53:01;6.80;;;3.93;;
77287;SDS011;66345;42.694;23.346;2023-04-24T09:55:29;7.82;;;4.13;;
77287;SDS011;66345;42.694;23.346;2023-04-24T09:57:56;5.90;;;4.03;;
77287;SDS011;66345;42.694;23.346;2023-04-24T10:00:25;7.30;;;4.20;;
77287;SDS011;66345;42.694;23.346;2023-04-24T10:05:24;8.70;;;5.50;;
77287;SDS011;66345;42.694;23.346;2023-04-24T10:07:55;8.65;;;4.63;;
77287;SDS011;66345;42.694;23.346;2023-04-24T10:10:22;7.77;;;3.93;;
77287;SDS011;66345;42.694;23.346;2023-04-24T10:12:47;9.35;;;4.97;;
77287;SDS011;66345;42.694;23.346;2023-04-24T10:15:15;9.02;;;4.22;;
77287;SDS011;66345;42.694;23.346;2023-04-24T10:17:45;6.70;;;4.20;;
77287;SDS011;66345;42.694;23.346;2023-04-24T10:20:17;6.80;;;4.10;;
77287;SDS011;66345;42.694;23.346;2023-04-24T10:22:44;7.15;;;4.28;;
77287;SDS011;66345;42.694;23.346;2023-04-24T10:25:18;7.40;;;4.38;;
77287;SDS011;66345;42.694;23.346;2023-04-24T10:27:45;8.13;;;4.75;;
77287;SDS011;66345;42.694;23.346;2023-04-24T10:30:11;6.60;;;3.70;;
77287;SDS011;66345;42.694;23.346;2023-04-24T10:32:37;7.50;;;4.45;;
77287;SDS011;66345;42.694;23.346;2023-04-24T10:35:03;6.53;;;4.57;;
77287;SDS011;66345;42.694;23.346;2023-04-24T10:37:34;6.23;;;4.47;;
77287;SDS011;66345;42.694;23.346;2023-04-24T10:40:03;7.75;;;5.00;;
77287;SDS011;66345;42.694;23.346;2023-04-24T10:42:30;12.77;;;9.88;;
77287;SDS011;66345;42.694;23.346;2023-04-24T10:44:56;7.35;;;4.63;;
77287;SDS011;66345;42.694;23.346;2023-04-24T10:47:23;6.78;;;3.92;;
77287;SDS011;66345;42.694;23.346;2023-04-24T10:49:50;7.47;;;4.00;;
77287;SDS011;66345;42.694;23.346;2023-04-24T10:52:16;7.25;;;4.57;;
77287;SDS011;66345;42.694;23.346;2023-04-24T10:54:45;7.17;;;3.77;;
77287;SDS011;66345;42.694;23.346;2023-04-24T10:59:47;7.13;;;4.47;;
77287;SDS011;66345;42.694;23.346;2023-04-24T11:02:35;7.18;;;3.95;;
77287;SDS011;66345;42.694;23.346;2023-04-24T11:05:05;9.60;;;4.10;;
77287;SDS011;66345;42.694;23.346;2023-04-24T11:10:55;10.88;;;4.20;;
77287;SDS011;66345;42.694;23.346;2023-04-24T11:13:24;11.70;;;5.82;;
77287;SDS011;66345;42.694;23.346;2023-04-24T11:19:05;8.93;;;4.27;;
77287;SDS011;66345;42.694;23.346;2023-04-24T11:22:17;10.52;;;4.90;;
77287;SDS011;66345;42.694;23.346;2023-04-24T11:24:32;12.85;;;7.90;;
77287;SDS011;66345;42.694;23.346;2023-04-24T11:29:45;8.65;;;4.20;;
77287;SDS011;66345;42.694;23.346;2023-04-24T11:32:24;9.82;;;4.30;;
77287;SDS011;66345;42.694;23.346;2023-04-24T11:35:35;7.35;;;4.53;;
77287;SDS011;66345;42.694;23.346;2023-04-24T11:37:44;9.43;;;4.32;;
77287;SDS011;66345;42.694;23.346;2023-04-24T11:40:16;8.30;;;4.88;;
77287;SDS011;66345;42.694;23.346;2023-04-24T11:42:51;7.72;;;4.22;;
77287;SDS011;66345;42.694;23.346;2023-04-24T11:45:18;8.30;;;4.88;;
77287;SDS011;66345;42.694;23.346;2023-04-24T11:47:48;7.22;;;3.72;;
77287;SDS011;66345;42.694;23.346;2023-04-24T11:50:14;8.27;;;4.15;;
77287;SDS011;66345;42.694;23.346;2023-04-24T11:52:42;6.45;;;3.40;;
77287;SDS011;66345;42.694;23.346;2023-04-24T11:55:22;5.53;;;3.70;;
77287;SDS011;66345;42.694;23.346;2023-04-24T11:57:52;5.28;;;3.05;;
77287;SDS011;66345;42.694;23.346;2023-04-24T12:00:24;4.47;;;2.90;;
77287;SDS011;66345;42.694;23.346;2023-04-24T12:02:50;4.50;;;3.00;;
77287;SDS011;66345;42.694;23.346;2023-04-24T12:05:26;5.70;;;3.10;;
77287;SDS011;66345;42.694;23.346;2023-04-24T12:07:52;6.73;;;2.83;;
77287;SDS011;66345;42.694;23.346;2023-04-24T12:10:21;6.18;;;3.20;;
77287;SDS011;66345;42.694;23.346;2023-04-24T12:12:48;7.15;;;4.53;;
77287;SDS011;66345;42.694;23.346;2023-04-24T12:15:15;5.75;;;3.20;;
77287;SDS011;66345;42.694;23.346;2023-04-24T12:17:41;7.43;;;4.55;;
77287;SDS011;66345;42.694;23.346;2023-04-24T12:20:08;5.53;;;3.70;;
77287;SDS011;66345;42.694;23.346;2023-04-24T12:25:15;4.95;;;3.22;;
77287;SDS011;66345;42.694;23.346;2023-04-24T12:27:43;6.32;;;3.10;;
77287;SDS011;66345;42.694;23.346;2023-04-24T12:30:13;12.05;;;4.03;;
77287;SDS011;66345;42.694;23.346;2023-04-24T12:32:42;9.00;;;3.90;;
77287;SDS011;66345;42.694;23.346;2023-04-24T12:35:08;5.10;;;3.05;;
77287;SDS011;66345;42.694;23.346;2023-04-24T12:37:34;14.02;;;4.75;;
77287;SDS011;66345;42.694;23.346;2023-04-24T12:40:08;6.57;;;2.90;;
77287;SDS011;66345;42.694;23.346;2023-04-24T12:42:35;4.50;;;2.78;;
77287;SDS011;66345;42.694;23.346;2023-04-24T12:45:07;5.60;;;3.05;;
77287;SDS011;66345;42.694;23.346;2023-04-24T12:47:33;5.30;;;2.47;;
77287;SDS011;66345;42.694;23.346;2023-04-24T12:49:59;5.60;;;2.63;;
77287;SDS011;66345;42.694;23.346;2023-04-24T12:52:25;5.30;;;2.65;;
77287;SDS011;66345;42.694;23.346;2023-04-24T12:54:53;5.97;;;3.03;;
77287;SDS011;66345;42.694;23.346;2023-04-24T12:57:20;5.30;;;2.60;;
77287;SDS011;66345;42.694;23.346;2023-04-24T12:59:47;6.90;;;2.73;;
77287;SDS011;66345;42.694;23.346;2023-04-24T13:02:12;5.15;;;2.88;;
77287;SDS011;66345;42.694;23.346;2023-04-24T13:04:38;4.95;;;3.10;;
77287;SDS011;66345;42.694;23.346;2023-04-24T13:07:04;6.70;;;2.80;;
77287;SDS011;66345;42.694;23.346;2023-04-24T13:09:31;5.65;;;3.30;;
77287;SDS011;66345;42.694;23.346;2023-04-24T13:11:56;7.88;;;3.33;;
77287;SDS011;66345;42.694;23.346;2023-04-24T13:14:22;6.17;;;3.50;;
77287;SDS011;66345;42.694;23.346;2023-04-24T13:16:48;6.18;;;3.10;;
77287;SDS011;66345;42.694;23.346;2023-04-24T13:19:14;7.85;;;3.58;;
77287;SDS011;66345;42.694;23.346;2023-04-24T13:21:40;5.90;;;3.60;;
77287;SDS011;66345;42.694;23.346;2023-04-24T13:24:05;6.15;;;3.78;;
77287;SDS011;66345;42.694;23.346;2023-04-24T13:26:34;5.73;;;3.47;;
77287;SDS011;66345;42.694;23.346;2023-04-24T13:28:59;6.00;;;3.33;;
77287;SDS011;66345;42.694;23.346;2023-04-24T13:31:25;5.17;;;3.33;;
77287;SDS011;66345;42.694;23.346;2023-04-24T13:33:50;7.25;;;3.20;;
77287;SDS011;66345;42.694;23.346;2023-04-24T13:36:17;5.53;;;3.20;;
77287;SDS011;66345;42.694;23.346;2023-04-24T13:38:43;6.70;;;3.43;;
77287;SDS011;66345;42.694;23.346;2023-04-24T13:41:09;7.10;;;3.05;;
77287;SDS011;66345;42.694;23.346;2023-04-24T13:43:35;5.27;;;3.47;;
77287;SDS011;66345;42.694;23.346;2023-04-24T13:46:00;7.88;;;3.40;;
77287;SDS011;66345;42.694;23.346;2023-04-24T13:48:28;6.50;;;3.33;;
77287;SDS011;66345;42.694;23.346;2023-04-24T13:50:54;5.78;;;3.58;;
77287;SDS011;66345;42.694;23.346;2023-04-24T13:53:19;5.20;;;3.40;;
77287;SDS011;66345;42.694;23.346;2023-04-24T13:55:45;5.35;;;3.65;;
77287;SDS011;66345;42.694;23.346;2023-04-24T13:58:10;7.67;;;3.87;;
77287;SDS011;66345;42.694;23.346;2023-04-24T14:00:36;8.18;;;4.00;;
77287;SDS011;66345;42.694;23.346;2023-04-24T14:03:01;6.90;;;3.78;;
77287;SDS011;66345;42.694;23.346;2023-04-24T14:05:26;7.50;;;3.77;;
77287;SDS011;66345;42.694;23.346;2023-04-24T14:07:52;7.63;;;3.37;;
77287;SDS011;66345;42.694;23.346;2023-04-24T14:10:17;7.07;;;3.43;;
77287;SDS011;66345;42.694;23.346;2023-04-24T14:12:43;7.03;;;3.65;;
77287;SDS011;66345;42.694;23.346;2023-04-24T14:15:09;6.80;;;3.90;;
77287;SDS011;66345;42.694;23.346;2023-04-24T14:17:35;6.75;;;3.63;;
77287;SDS011;66345;42.694;23.346;2023-04-24T14:20:00;8.57;;;3.80;;
77287;SDS011;66345;42.694;23.346;2023-04-24T14:22:26;7.13;;;3.55;;
77287;SDS011;66345;42.694;23.346;2023-04-24T14:24:52;5.80;;;2.80;;
77287;SDS011;66345;42.694;23.346;2023-04-24T14:27:17;5.10;;;3.10;;
77287;SDS011;66345;42.694;23.346;2023-04-24T14:29:43;5.40;;;2.83;;
77287;SDS011;66345;42.694;23.346;2023-04-24T14:32:10;5.60;;;2.83;;
77287;SDS011;66345;42.694;23.346;2023-04-24T14:34:35;5.70;;;2.80;;
77287;SDS011;66345;42.694;23.346;2023-04-24T14:37:01;5.60;;;3.27;;
77287;SDS011;66345;42.694;23.346;2023-04-24T14:39:26;7.00;;;3.38;;
77287;SDS011;66345;42.694;23.346;2023-04-24T14:41:53;5.57;;;3.28;;
77287;SDS011;66345;42.694;23.346;2023-04-24T14:44:18;5.38;;;3.10;;
77287;SDS011;66345;42.694;23.346;2023-04-24T14:46:44;5.10;;;3.27;;